Time,TemperatureF,DewpointF,PressureIn,WindDirection,WindDirectionDegrees,WindSpeedMPH,WindSpeedGustMPH,Humidity,HourlyPrecipIn,Conditions,Clouds,dailyrainin,SoftwareType,DateUTC
2013-07-15 00:01:00,74.0,66.0,30.36,SW,223,0.0,0.0,75,0.00,,,0.00,,2013-07-15 04:01:00,
2013-07-15 00:11:00,74.0,66.0,30.36,SW,223,0.0,0.0,75,0.00,,,0.00,,2013-07-15 04:11:00,
2013-07-15 00:22:00,74.0,66.0,30.36,SW,223,0.0,0.0,75,0.00,,,0.00,,2013-07-15 04:22:00,
2013-07-15 00:33:00,73.0,65.0,30.36,SW,223,0.0,0.0,76,0.00,,,0.00,,2013-07-15 04:33:00,
2013-07-15 00:42:00,73.0,65.0,30.37,SW,223,0.0,0.0,75,0.00,,,0.00,,2013-07-15 04:42:00,
2013-07-15 00:53:00,73.0,64.0,30.37,SW,223,0.0,0.0,74,0.00,,,0.00,,2013-07-15 04:53:00,
2013-07-15 01:02:00,73.0,64.0,30.37,SW,223,0.0,0.0,74,0.00,,,0.00,,2013-07-15 05:02:00,
2013-07-15 01:12:00,73.0,64.0,30.37,SW,223,0.0,0.0,74,0.00,,,0.00,,2013-07-15 05:12:00,
2013-07-15 01:22:00,72.0,64.0,30.37,SW,223,0.0,0.0,75,0.00,,,0.00,,2013-07-15 05:22:00,
2013-07-15 01:32:00,72.0,64.0,30.37,SW,223,0.0,0.0,75,0.00,,,0.00,,2013-07-15 05:32:00,
2013-07-15 01:43:00,72.0,64.0,30.37,SW,223,0.0,0.0,75,0.00,,,0.00,,2013-07-15 05:43:00,
2013-07-15 01:53:00,72.0,64.0,30.37,SW,223,0.0,0.0,76,0.00,,,0.00,,2013-07-15 05:53:00,
2013-07-15 02:02:00,72.0,64.0,30.37,SW,223,0.0,0.0,76,0.00,,,0.00,,2013-07-15 06:02:00,
2013-07-15 02:12:00,71.0,63.0,30.37,SW,223,0.0,0.0,77,0.00,,,0.00,,2013-07-15 06:12:00,
2013-07-15 02:22:00,71.0,63.0,30.37,SW,223,0.0,0.0,77,0.00,,,0.00,,2013-07-15 06:22:00,
2013-07-15 02:32:00,71.0,63.0,30.37,SW,223,0.0,0.0,77,0.00,,,0.00,,2013-07-15 06:32:00,
2013-07-15 02:42:00,71.0,63.0,30.37,SW,223,0.0,0.0,77,0.00,,,0.00,,2013-07-15 06:42:00,
2013-07-15 02:53:00,71.0,63.0,30.37,SW,223,0.0,0.0,77,0.00,,,0.00,,2013-07-15 06:53:00,
2013-07-15 03:01:00,71.0,63.0,30.37,SW,223,0.0,0.0,77,0.00,,,0.00,,2013-07-15 07:01:00,
2013-07-15 03:11:00,71.0,63.0,30.37,SW,223,0.0,1.0,77,0.00,,,0.00,,2013-07-15 07:11:00,
2013-07-15 03:22:00,71.0,63.0,30.37,SW,223,0.0,0.0,77,0.00,,,0.00,,2013-07-15 07:22:00,
2013-07-15 03:33:00,71.0,63.0,30.38,SW,223,0.0,0.0,77,0.00,,,0.00,,2013-07-15 07:33:00,
2013-07-15 03:44:00,71.0,64.0,30.38,SW,223,0.0,0.0,78,0.00,,,0.00,,2013-07-15 07:44:00,
2013-07-15 03:53:00,71.0,64.0,30.38,SW,223,0.0,1.0,78,0.00,,,0.00,,2013-07-15 07:53:00,
2013-07-15 04:02:00,71.0,64.0,30.38,SW,223,0.0,0.0,78,0.00,,,0.00,,2013-07-15 08:02:00,
2013-07-15 04:22:00,70.0,63.0,30.37,SW,223,0.0,0.0,79,0.00,,,0.00,,2013-07-15 08:22:00,
2013-07-15 04:32:00,70.0,64.0,30.37,SW,223,0.0,1.0,80,0.00,,,0.00,,2013-07-15 08:32:00,
2013-07-15 04:43:00,70.0,64.0,30.37,SW,223,0.0,1.0,81,0.00,,,0.00,,2013-07-15 08:43:00,
2013-07-15 04:53:00,69.0,63.0,30.37,SW,223,0.0,0.0,81,0.00,,,0.00,,2013-07-15 08:53:00,
2013-07-15 05:02:00,69.0,63.0,30.37,SW,223,0.0,1.0,82,0.00,,,0.00,,2013-07-15 09:02:00,
2013-07-15 05:12:00,69.0,64.0,30.37,SW,223,0.0,1.0,83,0.00,,,0.00,,2013-07-15 09:12:00,
2013-07-15 05:22:00,68.0,63.0,30.38,SW,223,0.0,1.0,84,0.00,,,0.00,,2013-07-15 09:22:00,
2013-07-15 05:32:00,68.0,63.0,30.38,SW,223,0.0,1.0,84,0.00,,,0.00,,2013-07-15 09:32:00,
2013-07-15 05:43:00,68.0,63.0,30.38,SW,223,0.0,1.0,85,0.00,,,0.00,,2013-07-15 09:43:00,
2013-07-15 05:52:00,68.0,64.0,30.38,SW,223,0.0,1.0,86,0.00,,,0.00,,2013-07-15 09:52:00,
2013-07-15 06:02:00,67.0,63.0,30.39,SW,223,0.0,1.0,86,0.00,,,0.00,,2013-07-15 10:02:00,
2013-07-15 06:11:00,67.0,63.0,30.39,SW,223,0.0,1.0,86,0.00,,,0.00,,2013-07-15 10:11:00,
2013-07-15 06:22:00,67.0,63.0,30.39,SW,223,0.0,1.0,86,0.00,,,0.00,,2013-07-15 10:22:00,
2013-07-15 06:32:00,67.0,63.0,30.39,SW,223,0.0,1.0,86,0.00,,,0.00,,2013-07-15 10:32:00,
2013-07-15 06:43:00,67.0,63.0,30.39,SW,223,0.0,1.0,86,0.00,,,0.00,,2013-07-15 10:43:00,
2013-07-15 06:53:00,67.0,63.0,30.40,SW,223,0.0,1.0,87,0.00,,,0.00,,2013-07-15 10:53:00,
2013-07-15 07:02:00,67.0,63.0,30.39,SW,223,0.0,2.0,88,0.00,,,0.00,,2013-07-15 11:02:00,
2013-07-15 07:11:00,67.0,63.0,30.39,SW,223,0.0,1.0,88,0.00,,,0.00,,2013-07-15 11:11:00,
2013-07-15 07:22:00,67.0,63.0,30.40,SW,223,0.0,1.0,88,0.00,,,0.00,,2013-07-15 11:22:00,
2013-07-15 07:32:00,67.0,63.0,30.40,SW,223,0.0,1.0,88,0.00,,,0.00,,2013-07-15 11:32:00,
2013-07-15 07:42:00,68.0,64.0,30.40,SW,223,0.0,1.0,88,0.00,,,0.00,,2013-07-15 11:42:00,
2013-07-15 07:52:00,68.0,64.0,30.40,SW,223,0.0,2.0,88,0.00,,,0.00,,2013-07-15 11:52:00,
2013-07-15 08:11:00,69.0,65.0,30.40,SW,223,0.0,1.0,87,0.00,,,0.00,,2013-07-15 12:11:00,
2013-07-15 08:22:00,70.0,66.0,30.41,SW,223,0.0,2.0,86,0.00,,,0.00,,2013-07-15 12:22:00,
2013-07-15 08:32:00,71.0,67.0,30.41,SW,223,0.0,1.0,87,0.00,,,0.00,,2013-07-15 12:32:00,
2013-07-15 08:42:00,71.0,67.0,30.42,SW,223,0.0,0.0,86,0.00,,,0.00,,2013-07-15 12:42:00,
2013-07-15 08:52:00,72.0,68.0,30.42,SW,223,0.0,0.0,86,0.00,,,0.00,,2013-07-15 12:52:00,
2013-07-15 09:02:00,73.0,68.0,30.42,SW,223,0.0,0.0,83,0.00,,,0.00,,2013-07-15 13:02:00,
2013-07-15 09:11:00,74.0,67.0,30.42,SW,223,0.0,0.0,80,0.00,,,0.00,,2013-07-15 13:11:00,
2013-07-15 09:22:00,75.0,68.0,30.42,SW,223,0.0,0.0,79,0.00,,,0.00,,2013-07-15 13:22:00,
2013-07-15 09:33:00,76.0,68.0,30.42,SW,223,0.0,0.0,77,0.00,,,0.00,,2013-07-15 13:33:00,
2013-07-15 09:43:00,77.0,68.0,30.42,SW,223,0.0,1.0,75,0.00,,,0.00,,2013-07-15 13:43:00,
2013-07-15 09:53:00,77.0,68.0,30.42,SW,223,0.0,1.0,74,0.00,,,0.00,,2013-07-15 13:53:00,
2013-07-15 10:02:00,77.0,68.0,30.42,SW,223,0.0,1.0,74,0.00,,,0.00,,2013-07-15 14:02:00,
2013-07-15 10:22:00,77.0,68.0,30.42,WSW,257,0.0,1.0,75,0.00,,,0.00,,2013-07-15 14:22:00,
2013-07-15 10:33:00,78.0,69.0,30.42,WSW,258,0.0,1.0,74,0.00,,,0.00,,2013-07-15 14:33:00,
2013-07-15 11:46:00,79.0,68.0,30.42,West,266,1.0,6.0,70,0.00,,,0.00,,2013-07-15 15:46:00,
2013-07-15 11:53:00,79.0,69.0,30.42,West,261,2.0,5.0,71,0.00,,,0.00,,2013-07-15 15:53:00,
2013-07-15 12:08:00,79.0,69.0,30.42,NW,316,4.0,7.0,72,0.00,,,0.00,,2013-07-15 16:08:00,
2013-07-15 12:24:00,79.0,69.0,30.42,NW,314,0.0,7.0,71,0.00,,,0.00,,2013-07-15 16:24:00,
2013-07-15 12:47:00,80.0,68.0,30.41,NNE,12,1.0,9.0,68,0.00,,,0.00,,2013-07-15 16:47:00,
2013-07-15 12:52:00,81.0,70.0,30.41,WNW,284,5.0,7.0,69,0.00,,,0.00,,2013-07-15 16:52:00,
2013-07-15 13:08:00,81.0,70.0,30.41,NW,317,3.0,8.0,70,0.00,,,0.00,,2013-07-15 17:08:00,
2013-07-15 13:56:00,82.0,67.0,30.40,NNE,15,2.0,6.0,61,0.00,,,0.00,,2013-07-15 17:56:00,
2013-07-15 14:07:00,82.0,69.0,30.39,NNE,28,0.0,6.0,64,0.00,,,0.00,,2013-07-15 18:07:00,
2013-07-15 14:45:00,83.0,70.0,30.38,WNW,289,3.0,7.0,66,0.00,,,0.00,,2013-07-15 18:45:00,
2013-07-15 14:56:00,83.0,70.0,30.38,West,281,1.0,7.0,65,0.00,,,0.00,,2013-07-15 18:56:00,
2013-07-15 15:05:00,83.0,69.0,30.38,WSW,257,2.0,7.0,62,0.00,,,0.00,,2013-07-15 19:05:00,
2013-07-15 15:12:00,83.0,69.0,30.38,WNW,296,4.0,7.0,62,0.00,,,0.00,,2013-07-15 19:12:00,
2013-07-15 15:56:00,85.0,69.0,30.37,WNW,288,5.0,8.0,59,0.00,,,0.00,,2013-07-15 19:56:00,
2013-07-15 16:07:00,85.0,69.0,30.37,West,280,0.0,6.0,59,0.00,,,0.00,,2013-07-15 20:07:00,
2013-07-15 16:29:00,85.0,70.0,30.36,West,279,0.0,5.0,60,0.00,,,0.00,,2013-07-15 20:29:00,
2013-07-15 17:03:00,85.0,70.0,30.35,NW,313,1.0,7.0,61,0.00,,,0.00,,2013-07-15 21:03:00,
2013-07-15 17:23:00,85.0,69.0,30.35,NW,317,1.0,6.0,58,0.00,,,0.00,,2013-07-15 21:23:00,
2013-07-15 17:39:00,85.0,69.0,30.35,WNW,302,3.0,5.0,58,0.00,,,0.00,,2013-07-15 21:39:00,
2013-07-15 17:48:00,85.0,69.0,30.35,NW,326,3.0,6.0,59,0.00,,,0.00,,2013-07-15 21:48:00,
2013-07-15 17:57:00,85.0,68.0,30.35,NW,310,0.0,6.0,56,0.00,,,0.00,,2013-07-15 21:57:00,
2013-07-15 18:03:00,85.0,69.0,30.34,NNW,332,2.0,6.0,58,0.00,,,0.00,,2013-07-15 22:03:00,
2013-07-15 18:22:00,85.0,69.0,30.34,NW,304,3.0,5.0,59,0.00,,,0.00,,2013-07-15 22:22:00,
2013-07-15 18:34:00,85.0,69.0,30.34,NW,304,1.0,5.0,58,0.00,,,0.00,,2013-07-15 22:34:00,
2013-07-15 18:43:00,85.0,69.0,30.34,WNW,294,0.0,7.0,59,0.00,,,0.00,,2013-07-15 22:43:00,
2013-07-15 18:54:00,84.0,69.0,30.33,WNW,295,1.0,5.0,60,0.00,,,0.00,,2013-07-15 22:54:00,
2013-07-15 19:06:00,84.0,69.0,30.34,NNW,327,2.0,6.0,61,0.00,,,0.00,,2013-07-15 23:06:00,
2013-07-15 19:40:00,84.0,69.0,30.34,NNW,329,2.0,5.0,61,0.00,,,0.00,,2013-07-15 23:40:00,
2013-07-15 19:47:00,84.0,70.0,30.34,NNW,329,0.0,5.0,62,0.00,,,0.00,,2013-07-15 23:47:00,
2013-07-15 19:53:00,84.0,69.0,30.33,NNW,329,0.0,1.0,61,0.00,,,0.00,,2013-07-15 23:53:00,
2013-07-15 20:03:00,84.0,70.0,30.33,NNW,329,0.0,1.0,63,0.00,,,0.00,,2013-07-16 00:03:00,
2013-07-15 20:16:00,85.0,71.0,30.33,NNW,329,0.0,0.0,64,0.00,,,0.00,,2013-07-16 00:16:00,
2013-07-15 20:34:00,84.0,71.0,30.33,North,351,0.0,0.0,66,0.00,,,0.00,,2013-07-16 00:34:00,
2013-07-15 20:48:00,82.0,70.0,30.33,North,351,0.0,0.0,67,0.00,,,0.00,,2013-07-16 00:48:00,
2013-07-15 21:10:00,79.0,69.0,30.32,North,351,0.0,1.0,71,0.00,,,0.00,,2013-07-16 01:10:00,
2013-07-15 21:28:00,78.0,68.0,30.32,North,351,0.0,1.0,72,0.00,,,0.00,,2013-07-16 01:28:00,
2013-07-15 21:58:00,77.0,68.0,30.34,NNE,29,0.0,0.0,75,0.00,,,0.00,,2013-07-16 01:58:00,
2013-07-15 22:06:00,76.0,67.0,30.34,NNE,29,0.0,0.0,75,0.00,,,0.00,,2013-07-16 02:06:00,
2013-07-15 22:11:00,76.0,67.0,30.34,NNE,29,0.0,0.0,75,0.00,,,0.00,,2013-07-16 02:11:00,
2013-07-15 22:35:00,76.0,67.0,30.35,NNE,29,0.0,0.0,75,0.00,,,0.00,,2013-07-16 02:35:00,
2013-07-15 23:09:00,76.0,67.0,30.35,NNE,29,0.0,0.0,75,0.00,,,0.00,,2013-07-16 03:09:00,
2013-07-15 23:17:00,76.0,67.0,30.35,NNE,29,0.0,1.0,74,0.00,,,0.00,,2013-07-16 03:17:00,
2013-07-15 23:47:00,76.0,68.0,30.36,NNE,29,0.0,0.0,76,0.00,,,0.00,,2013-07-16 03:47:00,